Newald, Wisconsin
Current Conditions -  °F | °C
As of 12:15 AM on Sunday 26 Oct 2014 (Local Time) from KEGV Reporting Station
Clear Clear  
Wind Chill: 37°   Ceiling: Unl
Heat Index: 42°   Visibility: 10mi
Dew Point: 26°   Wind: 7mph
Humidity: 53%   Direction: 300°WNW
Pressure: 29.92"   Gusts: NA
Location:  45.724°N, 88.8585°W
Report Text: KEGV 260515Z AUTO 30006KT 10SM CLR 06/M03 A2992 RMK AO2 T00551035
Loading
Personal Weather Stations






























Interactive Weather Map
Tropical Storm Tracking
New forecast layout! Learn more

10-Day Weather Forecast

Advertisements
Track Severe Weather on mobile